Terminal Aerodrome Forecast
Issued by NWS

Home | Current Version | Previous Version | Graphics & Text | Print | Product List | Glossary On
Versions: 1 2 3 4 5 6 7 8 9 10 11 12 13 14 15 16 17
067
FTUS43 KGRB 291319 AAA
TAFATW
TAF AMD
KATW 291319Z 2913/3012 02010KT P6SM BKN010
      TEMPO 2913/2915 BKN005
     FM291600 04013G18KT P6SM FEW020
     FM292000 04012G18KT P6SM SCT200
     FM292300 04009KT P6SM SCT120
     FM301100 03010KT P6SM BKN025=

USA.gov is the U.S. government's official web portal to all federal, state and local government web resources and services.